sensor_id;sensor_type;location;lat;lon;timestamp;pressure;altitude;pressure_sealevel;temperature;humidity
33635;BME280;19972;54.360;10.076;2022-10-16T00:01:12;101296.72;;;12.10;100.00
33635;BME280;19972;54.360;10.076;2022-10-16T00:03:40;101300.75;;;12.17;100.00
33635;BME280;19972;54.360;10.076;2022-10-16T00:06:08;101297.94;;;12.04;100.00
33635;BME280;19972;54.360;10.076;2022-10-16T00:08:36;101290.47;;;12.11;100.00
33635;BME280;19972;54.360;10.076;2022-10-16T00:11:10;101287.44;;;12.17;100.00
33635;BME280;19972;54.360;10.076;2022-10-16T00:13:39;101287.03;;;12.09;100.00
33635;BME280;19972;54.360;10.076;2022-10-16T00:16:06;101280.09;;;12.06;100.00
33635;BME280;19972;54.360;10.076;2022-10-16T00:18:33;101303.00;;;11.95;100.00
33635;BME280;19972;54.360;10.076;2022-10-16T00:21:09;101299.66;;;11.91;100.00
33635;BME280;19972;54.360;10.076;2022-10-16T00:23:36;101301.75;;;11.86;100.00
33635;BME280;19972;54.360;10.076;2022-10-16T00:26:07;101311.16;;;11.92;100.00
33635;BME280;19972;54.360;10.076;2022-10-16T00:28:33;101314.19;;;11.85;100.00
33635;BME280;19972;54.360;10.076;2022-10-16T00:31:04;101303.00;;;11.95;100.00
33635;BME280;19972;54.360;10.076;2022-10-16T00:33:32;101292.16;;;11.83;100.00
33635;BME280;19972;54.360;10.076;2022-10-16T00:35:59;101301.00;;;11.84;100.00
33635;BME280;19972;54.360;10.076;2022-10-16T00:38:26;101310.91;;;11.80;100.00
33635;BME280;19972;54.360;10.076;2022-10-16T00:40:52;101304.50;;;11.84;100.00
33635;BME280;19972;54.360;10.076;2022-10-16T00:43:42;101301.22;;;11.79;100.00
33635;BME280;19972;54.360;10.076;2022-10-16T00:46:15;101296.16;;;11.91;100.00
33635;BME280;19972;54.360;10.076;2022-10-16T00:48:47;101288.53;;;11.84;100.00
33635;BME280;19972;54.360;10.076;2022-10-16T00:51:15;101273.88;;;11.77;100.00
33635;BME280;19972;54.360;10.076;2022-10-16T00:53:41;101286.91;;;11.82;100.00
33635;BME280;19972;54.360;10.076;2022-10-16T00:56:07;101282.44;;;11.82;100.00
33635;BME280;19972;54.360;10.076;2022-10-16T00:58:34;101276.00;;;11.86;100.00
33635;BME280;19972;54.360;10.076;2022-10-16T01:01:01;101272.13;;;11.76;100.00
33635;BME280;19972;54.360;10.076;2022-10-16T01:03:34;101277.69;;;11.87;100.00
33635;BME280;19972;54.360;10.076;2022-10-16T01:09:02;101267.44;;;11.81;100.00
33635;BME280;19972;54.360;10.076;2022-10-16T01:11:44;101265.56;;;11.83;100.00
33635;BME280;19972;54.360;10.076;2022-10-16T01:14:15;101267.50;;;11.80;100.00
33635;BME280;19972;54.360;10.076;2022-10-16T01:16:50;101261.16;;;11.82;100.00
33635;BME280;19972;54.360;10.076;2022-10-16T01:19:44;101273.94;;;11.76;100.00
33635;BME280;19972;54.360;10.076;2022-10-16T01:22:16;101269.91;;;11.84;100.00
33635;BME280;19972;54.360;10.076;2022-10-16T01:24:46;101280.31;;;11.73;100.00
33635;BME280;19972;54.360;10.076;2022-10-16T01:27:26;101271.72;;;11.84;100.00
33635;BME280;19972;54.360;10.076;2022-10-16T01:30:13;101276.94;;;11.85;100.00
33635;BME280;19972;54.360;10.076;2022-10-16T01:37:49;101282.28;;;11.70;100.00
33635;BME280;19972;54.360;10.076;2022-10-16T01:40:18;101278.97;;;11.66;100.00
33635;BME280;19972;54.360;10.076;2022-10-16T01:42:48;101279.16;;;11.63;100.00
33635;BME280;19972;54.360;10.076;2022-10-16T01:45:19;101285.91;;;11.69;100.00
33635;BME280;19972;54.360;10.076;2022-10-16T01:47:48;101272.34;;;11.73;100.00
33635;BME280;19972;54.360;10.076;2022-10-16T01:50:18;101267.59;;;11.78;100.00
33635;BME280;19972;54.360;10.076;2022-10-16T01:52:48;101267.19;;;11.70;100.00
33635;BME280;19972;54.360;10.076;2022-10-16T01:55:29;101264.53;;;11.70;100.00
33635;BME280;19972;54.360;10.076;2022-10-16T01:57:58;101271.78;;;11.82;100.00
33635;BME280;19972;54.360;10.076;2022-10-16T02:00:26;101259.78;;;11.75;100.00
33635;BME280;19972;54.360;10.076;2022-10-16T02:02:53;101263.88;;;11.81;100.00
33635;BME280;19972;54.360;10.076;2022-10-16T02:05:34;101263.53;;;11.87;100.00
33635;BME280;19972;54.360;10.076;2022-10-16T02:08:04;101248.25;;;11.91;100.00
33635;BME280;19972;54.360;10.076;2022-10-16T02:10:31;101265.25;;;11.88;100.00
33635;BME280;19972;54.360;10.076;2022-10-16T02:13:06;101255.69;;;12.00;100.00
33635;BME280;19972;54.360;10.076;2022-10-16T02:15:35;101248.03;;;11.94;100.00
33635;BME280;19972;54.360;10.076;2022-10-16T02:18:06;101250.06;;;11.90;100.00
33635;BME280;19972;54.360;10.076;2022-10-16T02:20:42;101254.06;;;11.83;100.00
33635;BME280;19972;54.360;10.076;2022-10-16T02:23:22;101247.88;;;11.97;100.00
33635;BME280;19972;54.360;10.076;2022-10-16T02:25:51;101249.78;;;11.95;100.00
33635;BME280;19972;54.360;10.076;2022-10-16T02:28:29;101253.38;;;11.94;100.00
33635;BME280;19972;54.360;10.076;2022-10-16T02:31:03;101245.19;;;11.82;100.00
33635;BME280;19972;54.360;10.076;2022-10-16T02:33:31;101257.56;;;11.83;100.00
33635;BME280;19972;54.360;10.076;2022-10-16T02:35:59;101252.81;;;11.88;100.00
33635;BME280;19972;54.360;10.076;2022-10-16T02:38:26;101258.91;;;11.91;100.00
33635;BME280;19972;54.360;10.076;2022-10-16T02:40:54;101254.97;;;11.82;100.00
33635;BME280;19972;54.360;10.076;2022-10-16T02:43:21;101266.47;;;11.82;100.00
33635;BME280;19972;54.360;10.076;2022-10-16T02:45:47;101268.22;;;11.83;100.00
33635;BME280;19972;54.360;10.076;2022-10-16T02:48:13;101254.91;;;11.83;100.00
33635;BME280;19972;54.360;10.076;2022-10-16T02:50:41;101260.47;;;11.79;100.00
33635;BME280;19972;54.360;10.076;2022-10-16T02:53:07;101260.56;;;11.77;100.00
33635;BME280;19972;54.360;10.076;2022-10-16T02:55:34;101258.56;;;11.81;100.00
33635;BME280;19972;54.360;10.076;2022-10-16T02:58:00;101262.81;;;11.69;100.00
33635;BME280;19972;54.360;10.076;2022-10-16T03:00:26;101249.03;;;11.62;100.00
33635;BME280;19972;54.360;10.076;2022-10-16T03:02:53;101264.25;;;11.60;100.00
33635;BME280;19972;54.360;10.076;2022-10-16T03:05:19;101266.03;;;11.60;100.00
33635;BME280;19972;54.360;10.076;2022-10-16T03:07:47;101259.94;;;11.58;100.00
33635;BME280;19972;54.360;10.076;2022-10-16T03:10:13;101265.06;;;11.47;100.00
33635;BME280;19972;54.360;10.076;2022-10-16T03:12:40;101261.06;;;11.54;100.00
33635;BME280;19972;54.360;10.076;2022-10-16T03:15:07;101259.25;;;11.54;100.00
33635;BME280;19972;54.360;10.076;2022-10-16T03:17:33;101252.50;;;11.49;100.00
33635;BME280;19972;54.360;10.076;2022-10-16T03:20:00;101252.50;;;11.49;100.00
33635;BME280;19972;54.360;10.076;2022-10-16T03:22:26;101255.16;;;11.49;100.00
33635;BME280;19972;54.360;10.076;2022-10-16T03:24:52;101250.06;;;11.46;100.00
33635;BME280;19972;54.360;10.076;2022-10-16T03:27:19;101242.25;;;11.43;100.00
33635;BME280;19972;54.360;10.076;2022-10-16T03:29:45;101251.00;;;11.45;100.00
33635;BME280;19972;54.360;10.076;2022-10-16T03:32:12;101248.34;;;11.45;100.00
33635;BME280;19972;54.360;10.076;2022-10-16T03:34:38;101251.28;;;11.40;100.00
33635;BME280;19972;54.360;10.076;2022-10-16T03:37:05;101262.34;;;11.32;100.00
33635;BME280;19972;54.360;10.076;2022-10-16T03:39:31;101259.41;;;11.37;100.00
33635;BME280;19972;54.360;10.076;2022-10-16T03:41:58;101263.22;;;11.33;100.00
33635;BME280;19972;54.360;10.076;2022-10-16T03:44:24;101265.47;;;11.25;100.00
33635;BME280;19972;54.360;10.076;2022-10-16T03:46:51;101269.56;;;11.30;100.00
33635;BME280;19972;54.360;10.076;2022-10-16T03:49:17;101258.47;;;11.38;100.00
33635;BME280;19972;54.360;10.076;2022-10-16T03:51:43;101257.81;;;11.34;100.00
33635;BME280;19972;54.360;10.076;2022-10-16T03:54:10;101247.28;;;11.33;100.00
33635;BME280;19972;54.360;10.076;2022-10-16T03:56:37;101256.47;;;11.27;100.00
33635;BME280;19972;54.360;10.076;2022-10-16T03:59:04;101259.66;;;11.18;100.00
33635;BME280;19972;54.360;10.076;2022-10-16T04:01:30;101248.50;;;11.27;100.00
33635;BME280;19972;54.360;10.076;2022-10-16T04:03:57;101257.75;;;11.20;100.00
33635;BME280;19972;54.360;10.076;2022-10-16T04:06:23;101264.97;;;11.18;100.00
33635;BME280;19972;54.360;10.076;2022-10-16T04:08:50;101266.28;;;11.11;100.00
33635;BME280;19972;54.360;10.076;2022-10-16T04:11:16;101266.88;;;11.16;100.00
33635;BME280;19972;54.360;10.076;2022-10-16T04:13:43;101261.22;;;11.06;100.00
33635;BME280;19972;54.360;10.076;2022-10-16T04:16:09;101260.00;;;11.12;100.00
33635;BME280;19972;54.360;10.076;2022-10-16T04:18:36;101259.31;;;11.08;100.00
33635;BME280;19972;54.360;10.076;2022-10-16T04:21:04;101258.00;;;11.16;100.00
33635;BME280;19972;54.360;10.076;2022-10-16T04:23:31;101253.56;;;11.16;100.00
33635;BME280;19972;54.360;10.076;2022-10-16T04:25:59;101256.41;;;11.13;100.00
33635;BME280;19972;54.360;10.076;2022-10-16T04:28:26;101255.06;;;11.06;100.00
33635;BME280;19972;54.360;10.076;2022-10-16T04:30:53;101261.31;;;11.05;100.00
33635;BME280;19972;54.360;10.076;2022-10-16T04:33:19;101259.16;;;11.12;100.00
33635;BME280;19972;54.360;10.076;2022-10-16T04:35:46;101259.22;;;11.10;100.00
33635;BME280;19972;54.360;10.076;2022-10-16T04:38:12;101251.78;;;11.01;100.00
33635;BME280;19972;54.360;10.076;2022-10-16T04:40:39;101251.97;;;10.98;100.00
33635;BME280;19972;54.360;10.076;2022-10-16T04:43:05;101258.97;;;11.15;100.00
33635;BME280;19972;54.360;10.076;2022-10-16T04:45:32;101255.88;;;11.22;100.00
33635;BME280;19972;54.360;10.076;2022-10-16T04:47:59;101256.72;;;11.23;100.00
33635;BME280;19972;54.360;10.076;2022-10-16T04:50:26;101244.31;;;11.37;100.00
33635;BME280;19972;54.360;10.076;2022-10-16T04:52:52;101246.06;;;11.39;100.00
33635;BME280;19972;54.360;10.076;2022-10-16T04:55:19;101241.88;;;11.49;100.00
33635;BME280;19972;54.360;10.076;2022-10-16T04:57:45;101245.38;;;11.35;100.00
33635;BME280;19972;54.360;10.076;2022-10-16T05:00:12;101249.25;;;11.44;100.00
33635;BME280;19972;54.360;10.076;2022-10-16T05:02:38;101237.13;;;11.40;100.00
33635;BME280;19972;54.360;10.076;2022-10-16T05:05:05;101243.47;;;11.37;100.00
33635;BME280;19972;54.360;10.076;2022-10-16T05:07:32;101238.16;;;11.37;100.00
33635;BME280;19972;54.360;10.076;2022-10-16T05:09:58;101242.03;;;11.31;100.00
33635;BME280;19972;54.360;10.076;2022-10-16T05:12:25;101250.63;;;11.51;100.00
33635;BME280;19972;54.360;10.076;2022-10-16T05:14:51;101260.06;;;11.56;100.00
33635;BME280;19972;54.360;10.076;2022-10-16T05:17:18;101247.75;;;11.40;100.00
33635;BME280;19972;54.360;10.076;2022-10-16T05:19:44;101246.97;;;11.37;100.00
33635;BME280;19972;54.360;10.076;2022-10-16T05:22:11;101246.53;;;11.45;100.00
33635;BME280;19972;54.360;10.076;2022-10-16T05:24:37;101245.31;;;11.51;100.00
33635;BME280;19972;54.360;10.076;2022-10-16T05:27:03;101241.53;;;11.55;100.00
33635;BME280;19972;54.360;10.076;2022-10-16T05:29:30;101236.97;;;11.57;100.00
33635;BME280;19972;54.360;10.076;2022-10-16T05:31:56;101233.09;;;11.62;100.00
33635;BME280;19972;54.360;10.076;2022-10-16T05:34:23;101201.84;;;11.66;100.00
33635;BME280;19972;54.360;10.076;2022-10-16T05:36:49;101205.44;;;11.65;100.00
33635;BME280;19972;54.360;10.076;2022-10-16T05:39:16;101215.16;;;11.66;100.00
33635;BME280;19972;54.360;10.076;2022-10-16T05:41:43;101207.16;;;11.66;100.00
33635;BME280;19972;54.360;10.076;2022-10-16T05:44:10;101208.84;;;11.83;100.00
33635;BME280;19972;54.360;10.076;2022-10-16T05:46:36;101206.16;;;11.83;100.00
33635;BME280;19972;54.360;10.076;2022-10-16T05:49:03;101193.72;;;11.83;100.00
33635;BME280;19972;54.360;10.076;2022-10-16T05:51:29;101175.84;;;11.85;100.00
33635;BME280;19972;54.360;10.076;2022-10-16T05:53:56;101180.00;;;11.75;100.00
33635;BME280;19972;54.360;10.076;2022-10-16T05:56:22;101183.44;;;11.77;100.00
33635;BME280;19972;54.360;10.076;2022-10-16T05:58:49;101174.31;;;11.81;100.00
33635;BME280;19972;54.360;10.076;2022-10-16T06:01:17;101161.00;;;11.81;100.00
33635;BME280;19972;54.360;10.076;2022-10-16T06:03:44;101158.72;;;11.75;100.00
33635;BME280;19972;54.360;10.076;2022-10-16T06:06:16;101150.09;;;11.86;100.00
33635;BME280;19972;54.360;10.076;2022-10-16T06:08:44;101136.91;;;11.84;100.00
33635;BME280;19972;54.360;10.076;2022-10-16T06:11:12;101117.50;;;11.82;100.00
33635;BME280;19972;54.360;10.076;2022-10-16T06:13:39;101115.63;;;11.84;100.00
33635;BME280;19972;54.360;10.076;2022-10-16T06:16:09;101109.06;;;11.90;100.00
33635;BME280;19972;54.360;10.076;2022-10-16T06:18:36;101101.91;;;11.91;100.00
33635;BME280;19972;54.360;10.076;2022-10-16T06:21:11;101081.78;;;11.86;100.00
33635;BME280;19972;54.360;10.076;2022-10-16T06:23:38;101083.00;;;11.81;100.00
33635;BME280;19972;54.360;10.076;2022-10-16T06:26:12;101076.25;;;11.75;100.00
33635;BME280;19972;54.360;10.076;2022-10-16T06:28:39;101061.66;;;11.68;100.00
33635;BME280;19972;54.360;10.076;2022-10-16T06:31:07;101073.81;;;11.72;100.00
33635;BME280;19972;54.360;10.076;2022-10-16T06:33:35;101068.25;;;12.04;100.00
33635;BME280;19972;54.360;10.076;2022-10-16T06:38:32;101054.19;;;12.02;100.00
33635;BME280;19972;54.360;10.076;2022-10-16T06:40:59;101034.03;;;11.98;100.00
33635;BME280;19972;54.360;10.076;2022-10-16T06:43:26;101041.84;;;12.01;100.00
33635;BME280;19972;54.360;10.076;2022-10-16T06:45:56;101029.31;;;12.15;100.00
33635;BME280;19972;54.360;10.076;2022-10-16T06:48:23;101005.91;;;12.21;100.00
33635;BME280;19972;54.360;10.076;2022-10-16T06:51:13;101010.25;;;12.49;100.00
33635;BME280;19972;54.360;10.076;2022-10-16T06:53:46;101004.47;;;12.29;100.00
33635;BME280;19972;54.360;10.076;2022-10-16T06:56:28;101001.81;;;12.42;100.00
33635;BME280;19972;54.360;10.076;2022-10-16T06:58:57;100988.63;;;12.53;100.00
33635;BME280;19972;54.360;10.076;2022-10-16T07:01:24;100975.31;;;12.53;100.00
33635;BME280;19972;54.360;10.076;2022-10-16T07:03:50;100957.75;;;12.63;100.00
33635;BME280;19972;54.360;10.076;2022-10-16T07:06:19;100969.13;;;12.53;100.00
33635;BME280;19972;54.360;10.076;2022-10-16T07:08:47;100962.34;;;12.61;100.00
33635;BME280;19972;54.360;10.076;2022-10-16T07:11:15;100945.94;;;12.55;100.00
33635;BME280;19972;54.360;10.076;2022-10-16T07:13:43;100934.75;;;12.50;100.00
33635;BME280;19972;54.360;10.076;2022-10-16T07:16:19;100934.84;;;12.61;100.00
33635;BME280;19972;54.360;10.076;2022-10-16T07:18:46;100920.16;;;12.55;100.00
33635;BME280;19972;54.360;10.076;2022-10-16T07:21:17;100922.38;;;12.49;100.00
33635;BME280;19972;54.360;10.076;2022-10-16T07:23:43;100942.81;;;12.35;100.00
33635;BME280;19972;54.360;10.076;2022-10-16T07:26:10;100942.50;;;12.53;100.00
33635;BME280;19972;54.360;10.076;2022-10-16T07:28:38;100945.72;;;12.45;100.00
33635;BME280;19972;54.360;10.076;2022-10-16T07:31:09;100940.63;;;12.55;100.00
33635;BME280;19972;54.360;10.076;2022-10-16T07:33:38;100937.81;;;12.69;100.00
33635;BME280;19972;54.360;10.076;2022-10-16T07:36:05;100932.72;;;12.66;100.00
33635;BME280;19972;54.360;10.076;2022-10-16T07:38:32;100932.19;;;12.74;100.00
33635;BME280;19972;54.360;10.076;2022-10-16T07:41:07;100925.34;;;12.69;100.00
33635;BME280;19972;54.360;10.076;2022-10-16T07:43:33;100921.13;;;12.67;100.00
33635;BME280;19972;54.360;10.076;2022-10-16T07:46:00;100919.31;;;12.55;100.00
33635;BME280;19972;54.360;10.076;2022-10-16T07:48:33;100928.88;;;12.70;100.00
33635;BME280;19972;54.360;10.076;2022-10-16T07:51:00;100924.84;;;12.77;100.00
33635;BME280;19972;54.360;10.076;2022-10-16T07:53:27;100922.69;;;12.95;100.00
33635;BME280;19972;54.360;10.076;2022-10-16T07:56:02;100918.81;;;12.99;100.00
33635;BME280;19972;54.360;10.076;2022-10-16T07:58:29;100906.66;;;13.08;100.00
33635;BME280;19972;54.360;10.076;2022-10-16T08:00:56;100915.31;;;13.11;100.00
33635;BME280;19972;54.360;10.076;2022-10-16T08:03:24;100914.75;;;13.19;100.00
33635;BME280;19972;54.360;10.076;2022-10-16T08:05:50;100914.97;;;13.16;100.00
33635;BME280;19972;54.360;10.076;2022-10-16T08:08:18;100924.75;;;13.15;100.00
33635;BME280;19972;54.360;10.076;2022-10-16T08:10:44;100919.06;;;13.22;100.00
33635;BME280;19972;54.360;10.076;2022-10-16T08:13:11;100928.63;;;13.24;100.00
33635;BME280;19972;54.360;10.076;2022-10-16T08:15:44;100923.69;;;13.31;100.00
33635;BME280;19972;54.360;10.076;2022-10-16T08:18:13;100930.13;;;13.28;100.00
33635;BME280;19972;54.360;10.076;2022-10-16T08:20:40;100920.97;;;13.43;100.00
33635;BME280;19972;54.360;10.076;2022-10-16T08:23:09;100921.22;;;13.40;100.00
33635;BME280;19972;54.360;10.076;2022-10-16T08:25:37;100915.22;;;13.50;100.00
33635;BME280;19972;54.360;10.076;2022-10-16T08:28:04;100914.66;;;13.57;100.00
33635;BME280;19972;54.360;10.076;2022-10-16T08:30:32;100922.31;;;13.62;100.00
33635;BME280;19972;54.360;10.076;2022-10-16T08:32:58;100922.72;;;13.68;100.00
33635;BME280;19972;54.360;10.076;2022-10-16T08:35:25;100927.97;;;13.81;100.00
33635;BME280;19972;54.360;10.076;2022-10-16T08:37:51;100925.59;;;13.89;100.00
33635;BME280;19972;54.360;10.076;2022-10-16T08:40:19;100931.63;;;13.80;100.00
33635;BME280;19972;54.360;10.076;2022-10-16T08:48:19;100940.69;;;14.02;100.00
33635;BME280;19972;54.360;10.076;2022-10-16T08:50:47;100937.50;;;13.96;100.00
33635;BME280;19972;54.360;10.076;2022-10-16T08:53:18;100940.00;;;14.11;100.00
33635;BME280;19972;54.360;10.076;2022-10-16T08:55:50;100926.19;;;14.17;100.00
33635;BME280;19972;54.360;10.076;2022-10-16T08:58:22;100956.31;;;14.30;100.00
33635;BME280;19972;54.360;10.076;2022-10-16T09:00:53;100937.91;;;14.38;100.00
33635;BME280;19972;54.360;10.076;2022-10-16T09:03:47;100932.75;;;14.24;100.00
33635;BME280;19972;54.360;10.076;2022-10-16T09:06:50;100944.94;;;14.39;100.00
33635;BME280;19972;54.360;10.076;2022-10-16T09:09:40;100932.72;;;14.48;100.00
33635;BME280;19972;54.360;10.076;2022-10-16T09:12:15;100927.75;;;14.55;100.00
33635;BME280;19972;54.360;10.076;2022-10-16T09:18:06;100921.72;;;14.86;100.00
33635;BME280;19972;54.360;10.076;2022-10-16T09:20:49;100929.00;;;14.84;100.00
33635;BME280;19972;54.360;10.076;2022-10-16T09:23:25;100936.28;;;14.82;100.00
33635;BME280;19972;54.360;10.076;2022-10-16T09:25:54;100925.59;;;14.82;100.00
33635;BME280;19972;54.360;10.076;2022-10-16T09:28:21;100938.88;;;14.95;100.00
33635;BME280;19972;54.360;10.076;2022-10-16T09:30:48;100930.56;;;15.09;100.00
33635;BME280;19972;54.360;10.076;2022-10-16T09:33:18;100936.16;;;15.28;100.00
33635;BME280;19972;54.360;10.076;2022-10-16T09:35:48;100936.72;;;15.43;100.00
33635;BME280;19972;54.360;10.076;2022-10-16T09:38:33;100932.16;;;15.34;100.00
33635;BME280;19972;54.360;10.076;2022-10-16T09:41:02;100942.81;;;15.56;100.00
33635;BME280;19972;54.360;10.076;2022-10-16T09:46:04;100941.38;;;15.30;100.00
33635;BME280;19972;54.360;10.076;2022-10-16T09:48:44;100947.38;;;15.11;100.00
33635;BME280;19972;54.360;10.076;2022-10-16T09:51:21;100964.25;;;15.12;100.00
33635;BME280;19972;54.360;10.076;2022-10-16T09:53:48;100939.56;;;15.19;100.00
33635;BME280;19972;54.360;10.076;2022-10-16T09:56:29;100950.28;;;15.19;100.00
33635;BME280;19972;54.360;10.076;2022-10-16T09:59:01;100948.69;;;15.17;100.00
33635;BME280;19972;54.360;10.076;2022-10-16T10:01:51;100947.22;;;15.24;100.00
33635;BME280;19972;54.360;10.076;2022-10-16T10:04:19;100942.72;;;15.24;100.00
33635;BME280;19972;54.360;10.076;2022-10-16T10:06:48;100952.22;;;15.28;100.00
33635;BME280;19972;54.360;10.076;2022-10-16T10:09:32;100949.72;;;15.70;100.00
33635;BME280;19972;54.360;10.076;2022-10-16T10:12:03;100959.00;;;15.98;100.00
33635;BME280;19972;54.360;10.076;2022-10-16T10:14:34;100966.31;;;15.96;100.00
33635;BME280;19972;54.360;10.076;2022-10-16T10:19:48;100951.66;;;15.79;100.00
33635;BME280;19972;54.360;10.076;2022-10-16T10:34:12;100992.84;;;15.99;100.00
33635;BME280;19972;54.360;10.076;2022-10-16T10:36:52;100989.00;;;15.81;100.00
33635;BME280;19972;54.360;10.076;2022-10-16T10:39:32;100995.50;;;16.31;100.00
33635;BME280;19972;54.360;10.076;2022-10-16T10:44:50;101000.47;;;15.72;100.00
33635;BME280;19972;54.360;10.076;2022-10-16T10:50:20;101008.34;;;17.11;100.00
33635;BME280;19972;54.360;10.076;2022-10-16T10:55:59;100980.69;;;17.21;100.00
33635;BME280;19972;54.360;10.076;2022-10-16T11:06:53;100999.63;;;18.00;100.00
33635;BME280;19972;54.360;10.076;2022-10-16T11:09:24;100989.28;;;18.34;100.00
33635;BME280;19972;54.360;10.076;2022-10-16T11:12:00;101029.84;;;17.82;100.00
33635;BME280;19972;54.360;10.076;2022-10-16T11:14:44;101023.19;;;17.77;100.00
33635;BME280;19972;54.360;10.076;2022-10-16T11:17:17;101003.69;;;17.13;100.00
33635;BME280;19972;54.360;10.076;2022-10-16T11:19:57;101015.69;;;16.68;100.00
33635;BME280;19972;54.360;10.076;2022-10-16T11:22:36;101006.38;;;16.83;100.00
33635;BME280;19972;54.360;10.076;2022-10-16T11:25:27;101003.00;;;17.11;100.00
33635;BME280;19972;54.360;10.076;2022-10-16T11:27:55;101017.91;;;17.04;100.00
33635;BME280;19972;54.360;10.076;2022-10-16T11:30:28;101011.69;;;16.62;100.00
33635;BME280;19972;54.360;10.076;2022-10-16T11:35:53;101010.50;;;17.58;100.00
33635;BME280;19972;54.360;10.076;2022-10-16T11:38:37;101014.31;;;18.15;100.00
33635;BME280;19972;54.360;10.076;2022-10-16T11:41:26;101013.75;;;18.02;100.00
33635;BME280;19972;54.360;10.076;2022-10-16T11:44:13;101043.41;;;17.50;100.00
33635;BME280;19972;54.360;10.076;2022-10-16T11:46:48;101045.25;;;16.98;100.00
33635;BME280;19972;54.360;10.076;2022-10-16T11:49:26;101024.44;;;17.11;100.00
33635;BME280;19972;54.360;10.076;2022-10-16T11:52:23;101036.50;;;16.75;100.00
33635;BME280;19972;54.360;10.076;2022-10-16T11:55:04;101035.97;;;17.02;100.00
33635;BME280;19972;54.360;10.076;2022-10-16T11:57:34;101053.41;;;17.48;100.00
33635;BME280;19972;54.360;10.076;2022-10-16T12:00:09;101071.25;;;16.66;100.00
33635;BME280;19972;54.360;10.076;2022-10-16T12:08:10;101065.31;;;16.62;100.00
33635;BME280;19972;54.360;10.076;2022-10-16T12:10:39;101091.44;;;17.53;100.00
33635;BME280;19972;54.360;10.076;2022-10-16T12:13:28;101088.97;;;16.89;100.00
33635;BME280;19972;54.360;10.076;2022-10-16T12:18:39;101083.75;;;16.55;100.00
33635;BME280;19972;54.360;10.076;2022-10-16T12:21:06;101092.97;;;16.95;100.00
33635;BME280;19972;54.360;10.076;2022-10-16T12:23:38;101096.06;;;17.21;100.00
33635;BME280;19972;54.360;10.076;2022-10-16T12:26:05;101145.13;;;17.23;100.00
33635;BME280;19972;54.360;10.076;2022-10-16T12:28:33;101096.19;;;16.45;100.00
33635;BME280;19972;54.360;10.076;2022-10-16T12:31:03;101105.78;;;16.04;100.00
33635;BME280;19972;54.360;10.076;2022-10-16T12:33:36;101092.91;;;17.36;100.00
33635;BME280;19972;54.360;10.076;2022-10-16T12:36:09;101112.31;;;17.19;100.00
33635;BME280;19972;54.360;10.076;2022-10-16T12:38:47;101108.78;;;16.66;100.00
33635;BME280;19972;54.360;10.076;2022-10-16T12:41:28;101102.69;;;16.75;100.00
33635;BME280;19972;54.360;10.076;2022-10-16T12:43:56;101117.25;;;16.82;100.00
33635;BME280;19972;54.360;10.076;2022-10-16T12:51:36;101137.09;;;15.81;100.00
33635;BME280;19972;54.360;10.076;2022-10-16T12:56:55;101121.97;;;15.58;100.00
33635;BME280;19972;54.360;10.076;2022-10-16T13:13:14;101250.88;;;19.91;100.00
33635;BME280;19972;54.360;10.076;2022-10-16T13:16:37;101236.53;;;20.00;100.00
33635;BME280;19972;54.360;10.076;2022-10-16T13:19:03;101275.75;;;20.59;100.00
33635;BME280;19972;54.360;10.076;2022-10-16T13:21:43;101260.06;;;19.98;100.00
33635;BME280;19972;54.360;10.076;2022-10-16T13:28:13;101235.16;;;19.76;100.00
33635;BME280;19972;54.360;10.076;2022-10-16T13:30:22;101247.53;;;20.16;100.00
33635;BME280;19972;54.360;10.076;2022-10-16T13:33:04;101241.66;;;19.93;100.00
33635;BME280;19972;54.360;10.076;2022-10-16T13:35:34;101250.69;;;20.02;100.00
33635;BME280;19972;54.360;10.076;2022-10-16T13:38:12;101236.81;;;21.07;100.00
33635;BME280;19972;54.360;10.076;2022-10-16T13:41:03;101231.47;;;21.15;100.00
33635;BME280;19972;54.360;10.076;2022-10-16T13:43:51;101267.78;;;19.15;100.00
33635;BME280;19972;54.360;10.076;2022-10-16T13:46:21;101279.69;;;19.81;100.00
33635;BME280;19972;54.360;10.076;2022-10-16T13:48:59;101280.34;;;18.86;100.00
33635;BME280;19972;54.360;10.076;2022-10-16T13:51:26;101318.97;;;18.75;100.00
33635;BME280;19972;54.360;10.076;2022-10-16T13:53:55;101307.03;;;19.08;100.00
33635;BME280;19972;54.360;10.076;2022-10-16T13:56:26;101277.81;;;20.00;100.00
33635;BME280;19972;54.360;10.076;2022-10-16T13:59:05;101272.34;;;19.24;100.00
33635;BME280;19972;54.360;10.076;2022-10-16T14:01:34;101316.69;;;18.70;100.00
33635;BME280;19972;54.360;10.076;2022-10-16T14:04:07;101303.31;;;18.50;100.00
33635;BME280;19972;54.360;10.076;2022-10-16T14:06:36;101354.56;;;18.06;100.00
33635;BME280;19972;54.360;10.076;2022-10-16T14:09:08;101362.50;;;17.11;100.00
33635;BME280;19972;54.360;10.076;2022-10-16T14:11:45;101354.13;;;18.32;100.00
33635;BME280;19972;54.360;10.076;2022-10-16T14:14:13;101292.75;;;19.75;100.00
33635;BME280;19972;54.360;10.076;2022-10-16T14:16:42;101249.75;;;20.86;100.00
33635;BME280;19972;54.360;10.076;2022-10-16T14:19:20;101224.59;;;21.03;100.00